Springhill, Louisiana
Current Conditions -  °F | °C
As of 12:35 PM on Saturday 20 Dec 2014 (Local Time) from KMNE Reporting Station
Overcast Overcast  
Wind Chill: 45°   Ceiling: 500
Heat Index: 45°   Visibility: 7mi
Dew Point: 43°   Wind: 3mph
Humidity: 93%   Direction: 60°ENE
Pressure: 30.23"   Gusts: NA
Location:  33.01°N, 93.47°W
Report Text: KMNE 201835Z AUTO 06003KT 7SM OVC005 07/06 A3023 RMK AO2
Loading
Personal Weather Stations






























Interactive Weather Map New forecast layout! Learn more

10-Day Weather Forecast

Advertisements
Track Severe Weather on mobile